CYZW

Teslin Airport

Teslin, , Canada
METAR CYZW 170000Z 10008KT 30SM FEW035 SCT065 BKN130 BKN190 M08/M10 A2920 RMK SC1SC2AC2CI2 SLP941
Observed Flight Rules
Dec-17 @ 00:00 UTC (23 minutes ago) Visual Flight Rules
Wind Visibility Clouds
100° at 8 knots 30 miles
  • Few at 3,500' AGL
  • Scattered at 6,500' AGL
  • Broken at 13,000' AGL
  • Broken at 19,000' AGL
Temperatures Readings
Current -8°C / 18°F
Dewpoint -10°C / 14°F
Humidity 86%
Altimeter 29.2" Hg
Pressure 994.1 hPa
Elevation 705
METAR CYZW 170000Z 10008KT 30SM FEW035 SCT065 BKN130 BKN190 M08/M10 A2920 RMK SC1SC2AC2CI2 SLP941
Observed Flight Rules
Dec-17 @ 00:00 UTC
(23 minutes ago)
VFR
Wind Visibility
100° at 8 knots 30 miles
Clouds
  • Few at 3,500' AGL
  • Scattered at 6,500' AGL
  • Broken at 13,000' AGL
  • Broken at 19,000' AGL
Temperature Dewpoint
-8°C / 18°F -10°C / 14°F
Humidity Altimeter Pressure
86% 29.2" Hg 994.1 hPa